sensor_id;sensor_type;location;lat;lon;timestamp;P1;durP1;ratioP1;P2;durP2;ratioP2
18200;SDS011;9226;47.858;9.594;2023-03-12T00:00:58;16.83;;;7.00;;
18200;SDS011;9226;47.858;9.594;2023-03-12T00:03:25;15.73;;;6.93;;
18200;SDS011;9226;47.858;9.594;2023-03-12T00:05:50;16.63;;;7.37;;
18200;SDS011;9226;47.858;9.594;2023-03-12T00:08:16;18.40;;;8.03;;
18200;SDS011;9226;47.858;9.594;2023-03-12T00:10:41;19.67;;;8.43;;
18200;SDS011;9226;47.858;9.594;2023-03-12T00:13:07;17.80;;;7.97;;
18200;SDS011;9226;47.858;9.594;2023-03-12T00:15:36;17.90;;;7.93;;
18200;SDS011;9226;47.858;9.594;2023-03-12T00:18:03;18.70;;;8.20;;
18200;SDS011;9226;47.858;9.594;2023-03-12T00:20:28;19.87;;;8.90;;
18200;SDS011;9226;47.858;9.594;2023-03-12T00:22:54;20.47;;;8.17;;
18200;SDS011;9226;47.858;9.594;2023-03-12T00:25:19;20.20;;;8.83;;
18200;SDS011;9226;47.858;9.594;2023-03-12T00:27:45;17.50;;;8.20;;
18200;SDS011;9226;47.858;9.594;2023-03-12T00:30:10;19.20;;;7.83;;
18200;SDS011;9226;47.858;9.594;2023-03-12T00:32:37;17.23;;;7.73;;
18200;SDS011;9226;47.858;9.594;2023-03-12T00:35:03;16.07;;;6.87;;
18200;SDS011;9226;47.858;9.594;2023-03-12T00:37:30;16.00;;;7.60;;
18200;SDS011;9226;47.858;9.594;2023-03-12T00:39:57;18.33;;;7.97;;
18200;SDS011;9226;47.858;9.594;2023-03-12T00:42:22;17.67;;;7.67;;
18200;SDS011;9226;47.858;9.594;2023-03-12T00:44:47;18.03;;;7.70;;
18200;SDS011;9226;47.858;9.594;2023-03-12T00:47:13;17.43;;;7.67;;
18200;SDS011;9226;47.858;9.594;2023-03-12T00:49:38;19.43;;;7.90;;
18200;SDS011;9226;47.858;9.594;2023-03-12T00:52:04;16.90;;;7.23;;
18200;SDS011;9226;47.858;9.594;2023-03-12T00:54:30;16.60;;;7.50;;
18200;SDS011;9226;47.858;9.594;2023-03-12T00:56:56;16.67;;;8.10;;
18200;SDS011;9226;47.858;9.594;2023-03-12T00:59:21;17.87;;;7.57;;
18200;SDS011;9226;47.858;9.594;2023-03-12T01:01:47;20.67;;;7.93;;
18200;SDS011;9226;47.858;9.594;2023-03-12T01:04:12;18.47;;;8.70;;
18200;SDS011;9226;47.858;9.594;2023-03-12T01:06:38;18.57;;;7.73;;
18200;SDS011;9226;47.858;9.594;2023-03-12T01:09:05;22.77;;;9.30;;
18200;SDS011;9226;47.858;9.594;2023-03-12T01:11:31;19.17;;;8.07;;
18200;SDS011;9226;47.858;9.594;2023-03-12T01:14:01;16.87;;;7.83;;
18200;SDS011;9226;47.858;9.594;2023-03-12T01:16:27;22.37;;;8.90;;
18200;SDS011;9226;47.858;9.594;2023-03-12T01:18:54;23.53;;;8.77;;
18200;SDS011;9226;47.858;9.594;2023-03-12T01:21:21;18.97;;;8.60;;
18200;SDS011;9226;47.858;9.594;2023-03-12T01:23:47;18.13;;;8.20;;
18200;SDS011;9226;47.858;9.594;2023-03-12T01:26:12;22.70;;;8.70;;
18200;SDS011;9226;47.858;9.594;2023-03-12T01:28:38;23.20;;;9.50;;
18200;SDS011;9226;47.858;9.594;2023-03-12T01:31:07;20.20;;;8.40;;
18200;SDS011;9226;47.858;9.594;2023-03-12T01:33:34;17.43;;;8.20;;
18200;SDS011;9226;47.858;9.594;2023-03-12T01:35:59;21.57;;;8.93;;
18200;SDS011;9226;47.858;9.594;2023-03-12T01:38:25;21.97;;;8.40;;
18200;SDS011;9226;47.858;9.594;2023-03-12T01:40:50;21.27;;;8.80;;
18200;SDS011;9226;47.858;9.594;2023-03-12T01:43:33;21.23;;;8.47;;
18200;SDS011;9226;47.858;9.594;2023-03-12T01:48:45;18.93;;;8.50;;
18200;SDS011;9226;47.858;9.594;2023-03-12T01:51:14;21.80;;;8.73;;
18200;SDS011;9226;47.858;9.594;2023-03-12T01:53:42;20.60;;;8.73;;
18200;SDS011;9226;47.858;9.594;2023-03-12T01:56:10;20.83;;;8.53;;
18200;SDS011;9226;47.858;9.594;2023-03-12T01:58:37;21.17;;;9.30;;
18200;SDS011;9226;47.858;9.594;2023-03-12T02:01:07;21.03;;;8.97;;
18200;SDS011;9226;47.858;9.594;2023-03-12T02:03:32;24.67;;;9.17;;
18200;SDS011;9226;47.858;9.594;2023-03-12T02:06:02;21.97;;;8.87;;
18200;SDS011;9226;47.858;9.594;2023-03-12T02:08:36;24.80;;;9.70;;
18200;SDS011;9226;47.858;9.594;2023-03-12T02:11:06;21.40;;;9.53;;
18200;SDS011;9226;47.858;9.594;2023-03-12T02:13:32;19.43;;;8.70;;
18200;SDS011;9226;47.858;9.594;2023-03-12T02:15:57;22.73;;;9.37;;
18200;SDS011;9226;47.858;9.594;2023-03-12T02:18:23;21.73;;;9.97;;
18200;SDS011;9226;47.858;9.594;2023-03-12T02:26:12;21.30;;;9.27;;
18200;SDS011;9226;47.858;9.594;2023-03-12T02:28:38;25.73;;;10.37;;
18200;SDS011;9226;47.858;9.594;2023-03-12T02:31:08;23.37;;;9.37;;
18200;SDS011;9226;47.858;9.594;2023-03-12T02:33:38;27.00;;;10.77;;
18200;SDS011;9226;47.858;9.594;2023-03-12T02:36:03;27.03;;;10.50;;
18200;SDS011;9226;47.858;9.594;2023-03-12T02:41:01;30.30;;;11.60;;
18200;SDS011;9226;47.858;9.594;2023-03-12T02:43:29;27.87;;;10.47;;
18200;SDS011;9226;47.858;9.594;2023-03-12T02:45:55;27.40;;;10.70;;
18200;SDS011;9226;47.858;9.594;2023-03-12T02:48:20;31.27;;;11.20;;
18200;SDS011;9226;47.858;9.594;2023-03-12T02:50:46;25.43;;;9.97;;
18200;SDS011;9226;47.858;9.594;2023-03-12T02:53:11;25.20;;;9.83;;
18200;SDS011;9226;47.858;9.594;2023-03-12T02:55:37;24.40;;;9.73;;
18200;SDS011;9226;47.858;9.594;2023-03-12T02:58:02;25.10;;;9.77;;
18200;SDS011;9226;47.858;9.594;2023-03-12T03:00:28;25.17;;;10.37;;
18200;SDS011;9226;47.858;9.594;2023-03-12T03:02:57;23.97;;;9.63;;
18200;SDS011;9226;47.858;9.594;2023-03-12T03:05:25;21.83;;;9.23;;
18200;SDS011;9226;47.858;9.594;2023-03-12T03:07:51;22.33;;;8.73;;
18200;SDS011;9226;47.858;9.594;2023-03-12T03:10:16;24.23;;;9.73;;
18200;SDS011;9226;47.858;9.594;2023-03-12T03:12:42;23.40;;;9.40;;
18200;SDS011;9226;47.858;9.594;2023-03-12T03:15:08;23.20;;;9.20;;
18200;SDS011;9226;47.858;9.594;2023-03-12T03:17:34;18.87;;;8.43;;
18200;SDS011;9226;47.858;9.594;2023-03-12T03:20:00;23.87;;;8.60;;
18200;SDS011;9226;47.858;9.594;2023-03-12T03:22:25;19.57;;;8.63;;
18200;SDS011;9226;47.858;9.594;2023-03-12T03:24:51;18.07;;;8.33;;
18200;SDS011;9226;47.858;9.594;2023-03-12T03:27:18;23.30;;;8.83;;
18200;SDS011;9226;47.858;9.594;2023-03-12T03:29:44;26.27;;;10.43;;
18200;SDS011;9226;47.858;9.594;2023-03-12T03:32:10;22.43;;;9.30;;
18200;SDS011;9226;47.858;9.594;2023-03-12T03:34:36;19.07;;;8.07;;
18200;SDS011;9226;47.858;9.594;2023-03-12T03:37:03;16.40;;;6.63;;
18200;SDS011;9226;47.858;9.594;2023-03-12T03:39:29;18.03;;;7.47;;
18200;SDS011;9226;47.858;9.594;2023-03-12T03:41:54;20.10;;;7.30;;
18200;SDS011;9226;47.858;9.594;2023-03-12T03:44:20;15.30;;;6.33;;
18200;SDS011;9226;47.858;9.594;2023-03-12T03:46:47;17.30;;;7.47;;
18200;SDS011;9226;47.858;9.594;2023-03-12T03:49:13;17.57;;;7.00;;
18200;SDS011;9226;47.858;9.594;2023-03-12T03:51:39;20.50;;;7.60;;
18200;SDS011;9226;47.858;9.594;2023-03-12T03:54:06;15.33;;;7.23;;
18200;SDS011;9226;47.858;9.594;2023-03-12T03:56:33;16.17;;;6.77;;
18200;SDS011;9226;47.858;9.594;2023-03-12T03:58:58;18.13;;;6.43;;
18200;SDS011;9226;47.858;9.594;2023-03-12T04:01:25;11.67;;;5.60;;
18200;SDS011;9226;47.858;9.594;2023-03-12T04:03:51;13.00;;;5.53;;
18200;SDS011;9226;47.858;9.594;2023-03-12T04:06:16;13.17;;;5.67;;
18200;SDS011;9226;47.858;9.594;2023-03-12T04:08:42;13.07;;;5.40;;
18200;SDS011;9226;47.858;9.594;2023-03-12T04:11:11;14.43;;;6.50;;
18200;SDS011;9226;47.858;9.594;2023-03-12T04:13:42;13.07;;;5.83;;
18200;SDS011;9226;47.858;9.594;2023-03-12T04:16:09;13.07;;;5.80;;
18200;SDS011;9226;47.858;9.594;2023-03-12T04:18:34;10.23;;;4.90;;
18200;SDS011;9226;47.858;9.594;2023-03-12T04:21:00;12.43;;;5.40;;
18200;SDS011;9226;47.858;9.594;2023-03-12T04:23:26;11.20;;;5.40;;
18200;SDS011;9226;47.858;9.594;2023-03-12T04:25:52;11.40;;;5.17;;
18200;SDS011;9226;47.858;9.594;2023-03-12T04:28:17;9.73;;;5.00;;
18200;SDS011;9226;47.858;9.594;2023-03-12T04:30:43;14.30;;;4.90;;
18200;SDS011;9226;47.858;9.594;2023-03-12T04:33:08;8.97;;;4.17;;
18200;SDS011;9226;47.858;9.594;2023-03-12T04:35:33;10.37;;;5.00;;
18200;SDS011;9226;47.858;9.594;2023-03-12T04:37:59;11.57;;;4.97;;
18200;SDS011;9226;47.858;9.594;2023-03-12T04:40:26;10.10;;;4.10;;
18200;SDS011;9226;47.858;9.594;2023-03-12T04:42:51;9.87;;;4.17;;
18200;SDS011;9226;47.858;9.594;2023-03-12T04:45:16;9.23;;;4.10;;
18200;SDS011;9226;47.858;9.594;2023-03-12T04:47:42;9.80;;;4.83;;
18200;SDS011;9226;47.858;9.594;2023-03-12T04:50:08;7.47;;;4.03;;
18200;SDS011;9226;47.858;9.594;2023-03-12T04:52:34;8.93;;;3.67;;
18200;SDS011;9226;47.858;9.594;2023-03-12T04:54:59;8.63;;;4.00;;
18200;SDS011;9226;47.858;9.594;2023-03-12T04:57:26;7.70;;;3.50;;
18200;SDS011;9226;47.858;9.594;2023-03-12T04:59:51;9.73;;;3.80;;
18200;SDS011;9226;47.858;9.594;2023-03-12T05:02:18;6.60;;;3.50;;
18200;SDS011;9226;47.858;9.594;2023-03-12T05:04:43;7.03;;;3.43;;
18200;SDS011;9226;47.858;9.594;2023-03-12T05:07:08;7.30;;;3.20;;
18200;SDS011;9226;47.858;9.594;2023-03-12T05:09:34;6.83;;;3.10;;
18200;SDS011;9226;47.858;9.594;2023-03-12T05:11:59;5.57;;;2.90;;
18200;SDS011;9226;47.858;9.594;2023-03-12T05:14:25;6.30;;;2.93;;
18200;SDS011;9226;47.858;9.594;2023-03-12T05:16:50;5.47;;;3.00;;
18200;SDS011;9226;47.858;9.594;2023-03-12T05:19:15;4.43;;;2.53;;
18200;SDS011;9226;47.858;9.594;2023-03-12T05:21:41;5.60;;;2.50;;
18200;SDS011;9226;47.858;9.594;2023-03-12T05:24:07;5.27;;;2.77;;
18200;SDS011;9226;47.858;9.594;2023-03-12T05:26:33;5.77;;;3.30;;
18200;SDS011;9226;47.858;9.594;2023-03-12T05:28:59;7.47;;;3.43;;
18200;SDS011;9226;47.858;9.594;2023-03-12T05:31:25;6.10;;;3.10;;
18200;SDS011;9226;47.858;9.594;2023-03-12T05:33:52;6.47;;;3.30;;
18200;SDS011;9226;47.858;9.594;2023-03-12T05:36:18;7.90;;;3.80;;
18200;SDS011;9226;47.858;9.594;2023-03-12T05:38:44;8.63;;;3.63;;
18200;SDS011;9226;47.858;9.594;2023-03-12T05:41:16;7.47;;;3.60;;
18200;SDS011;9226;47.858;9.594;2023-03-12T05:43:50;7.30;;;3.10;;
18200;SDS011;9226;47.858;9.594;2023-03-12T05:46:16;6.73;;;3.37;;
18200;SDS011;9226;47.858;9.594;2023-03-12T05:48:42;7.50;;;3.57;;
18200;SDS011;9226;47.858;9.594;2023-03-12T05:51:07;10.47;;;3.80;;
18200;SDS011;9226;47.858;9.594;2023-03-12T05:53:33;7.70;;;3.60;;
18200;SDS011;9226;47.858;9.594;2023-03-12T05:56:02;9.87;;;4.23;;
18200;SDS011;9226;47.858;9.594;2023-03-12T05:58:29;8.30;;;4.13;;
18200;SDS011;9226;47.858;9.594;2023-03-12T06:00:55;8.57;;;3.90;;
18200;SDS011;9226;47.858;9.594;2023-03-12T06:03:20;7.77;;;4.00;;
18200;SDS011;9226;47.858;9.594;2023-03-12T06:05:46;7.97;;;3.87;;
18200;SDS011;9226;47.858;9.594;2023-03-12T06:08:12;8.63;;;3.73;;
18200;SDS011;9226;47.858;9.594;2023-03-12T06:10:37;9.57;;;3.73;;
18200;SDS011;9226;47.858;9.594;2023-03-12T06:13:03;7.47;;;3.87;;
18200;SDS011;9226;47.858;9.594;2023-03-12T06:15:29;8.67;;;4.20;;
18200;SDS011;9226;47.858;9.594;2023-03-12T06:17:54;7.20;;;3.83;;
18200;SDS011;9226;47.858;9.594;2023-03-12T06:20:20;7.60;;;3.73;;
18200;SDS011;9226;47.858;9.594;2023-03-12T06:22:45;6.97;;;3.77;;
18200;SDS011;9226;47.858;9.594;2023-03-12T06:25:11;6.27;;;3.30;;
18200;SDS011;9226;47.858;9.594;2023-03-12T06:27:36;8.43;;;3.83;;
18200;SDS011;9226;47.858;9.594;2023-03-12T06:30:02;8.87;;;4.20;;
18200;SDS011;9226;47.858;9.594;2023-03-12T06:32:28;8.47;;;4.53;;
18200;SDS011;9226;47.858;9.594;2023-03-12T06:34:54;7.33;;;3.63;;
18200;SDS011;9226;47.858;9.594;2023-03-12T06:37:19;7.90;;;3.73;;
18200;SDS011;9226;47.858;9.594;2023-03-12T06:39:45;9.00;;;4.10;;
18200;SDS011;9226;47.858;9.594;2023-03-12T06:42:11;8.67;;;4.30;;
18200;SDS011;9226;47.858;9.594;2023-03-12T06:44:38;6.97;;;3.80;;
18200;SDS011;9226;47.858;9.594;2023-03-12T06:47:04;10.87;;;4.17;;
18200;SDS011;9226;47.858;9.594;2023-03-12T06:49:29;10.23;;;4.00;;
18200;SDS011;9226;47.858;9.594;2023-03-12T06:51:57;9.50;;;4.07;;
18200;SDS011;9226;47.858;9.594;2023-03-12T06:54:22;9.87;;;4.07;;
18200;SDS011;9226;47.858;9.594;2023-03-12T06:56:48;11.73;;;5.00;;
18200;SDS011;9226;47.858;9.594;2023-03-12T06:59:13;10.37;;;4.97;;
18200;SDS011;9226;47.858;9.594;2023-03-12T07:01:38;10.27;;;4.97;;
18200;SDS011;9226;47.858;9.594;2023-03-12T07:04:04;7.77;;;3.97;;
18200;SDS011;9226;47.858;9.594;2023-03-12T07:06:29;7.37;;;3.87;;
18200;SDS011;9226;47.858;9.594;2023-03-12T07:08:54;10.20;;;4.80;;
18200;SDS011;9226;47.858;9.594;2023-03-12T07:11:20;9.70;;;4.70;;
18200;SDS011;9226;47.858;9.594;2023-03-12T07:13:45;9.23;;;4.40;;
18200;SDS011;9226;47.858;9.594;2023-03-12T07:16:11;9.90;;;3.87;;
18200;SDS011;9226;47.858;9.594;2023-03-12T07:18:36;8.10;;;3.37;;
18200;SDS011;9226;47.858;9.594;2023-03-12T07:21:02;9.40;;;4.80;;
18200;SDS011;9226;47.858;9.594;2023-03-12T07:23:28;10.03;;;4.17;;
18200;SDS011;9226;47.858;9.594;2023-03-12T07:25:53;12.77;;;4.33;;
18200;SDS011;9226;47.858;9.594;2023-03-12T07:28:20;9.73;;;4.33;;
18200;SDS011;9226;47.858;9.594;2023-03-12T07:30:46;8.77;;;4.33;;
18200;SDS011;9226;47.858;9.594;2023-03-12T07:33:15;9.63;;;4.33;;
18200;SDS011;9226;47.858;9.594;2023-03-12T07:35:44;8.33;;;4.30;;
18200;SDS011;9226;47.858;9.594;2023-03-12T07:38:11;9.33;;;4.27;;
18200;SDS011;9226;47.858;9.594;2023-03-12T07:40:36;7.87;;;4.17;;
18200;SDS011;9226;47.858;9.594;2023-03-12T07:43:02;9.17;;;4.50;;
18200;SDS011;9226;47.858;9.594;2023-03-12T07:45:34;11.67;;;4.17;;
18200;SDS011;9226;47.858;9.594;2023-03-12T07:48:00;11.67;;;5.07;;
18200;SDS011;9226;47.858;9.594;2023-03-12T07:50:26;9.17;;;4.60;;
18200;SDS011;9226;47.858;9.594;2023-03-12T07:52:51;9.57;;;4.43;;
18200;SDS011;9226;47.858;9.594;2023-03-12T07:55:17;11.50;;;4.93;;
18200;SDS011;9226;47.858;9.594;2023-03-12T07:57:42;11.33;;;4.83;;
18200;SDS011;9226;47.858;9.594;2023-03-12T08:00:08;13.57;;;5.87;;
18200;SDS011;9226;47.858;9.594;2023-03-12T08:02:34;14.87;;;5.97;;
18200;SDS011;9226;47.858;9.594;2023-03-12T08:05:00;14.70;;;6.17;;
18200;SDS011;9226;47.858;9.594;2023-03-12T08:07:26;16.70;;;6.10;;
18200;SDS011;9226;47.858;9.594;2023-03-12T08:09:56;16.17;;;6.50;;
18200;SDS011;9226;47.858;9.594;2023-03-12T08:12:25;16.40;;;6.80;;
18200;SDS011;9226;47.858;9.594;2023-03-12T08:14:51;15.80;;;6.40;;
18200;SDS011;9226;47.858;9.594;2023-03-12T08:17:16;13.67;;;6.07;;
18200;SDS011;9226;47.858;9.594;2023-03-12T08:19:42;13.20;;;6.53;;
18200;SDS011;9226;47.858;9.594;2023-03-12T08:22:07;20.73;;;6.90;;
18200;SDS011;9226;47.858;9.594;2023-03-12T08:24:33;13.40;;;6.17;;
18200;SDS011;9226;47.858;9.594;2023-03-12T08:26:59;16.83;;;6.87;;
18200;SDS011;9226;47.858;9.594;2023-03-12T08:29:25;17.03;;;6.83;;
18200;SDS011;9226;47.858;9.594;2023-03-12T08:31:50;12.73;;;6.13;;
18200;SDS011;9226;47.858;9.594;2023-03-12T08:34:16;18.37;;;6.47;;
18200;SDS011;9226;47.858;9.594;2023-03-12T08:36:41;16.93;;;6.90;;
18200;SDS011;9226;47.858;9.594;2023-03-12T08:39:06;16.67;;;6.97;;
18200;SDS011;9226;47.858;9.594;2023-03-12T08:41:32;15.20;;;6.70;;
18200;SDS011;9226;47.858;9.594;2023-03-12T08:43:57;18.53;;;7.37;;
18200;SDS011;9226;47.858;9.594;2023-03-12T08:46:23;16.83;;;6.80;;
18200;SDS011;9226;47.858;9.594;2023-03-12T08:48:48;16.00;;;6.87;;
18200;SDS011;9226;47.858;9.594;2023-03-12T08:51:13;15.07;;;6.23;;
18200;SDS011;9226;47.858;9.594;2023-03-12T08:53:39;16.80;;;6.60;;
18200;SDS011;9226;47.858;9.594;2023-03-12T08:56:05;18.23;;;6.60;;
18200;SDS011;9226;47.858;9.594;2023-03-12T08:58:31;14.23;;;7.27;;
18200;SDS011;9226;47.858;9.594;2023-03-12T09:00:57;15.60;;;6.70;;
18200;SDS011;9226;47.858;9.594;2023-03-12T09:03:22;16.43;;;7.03;;
18200;SDS011;9226;47.858;9.594;2023-03-12T09:05:49;16.47;;;6.93;;
18200;SDS011;9226;47.858;9.594;2023-03-12T09:08:16;15.57;;;6.67;;
18200;SDS011;9226;47.858;9.594;2023-03-12T09:10:46;14.17;;;6.60;;
18200;SDS011;9226;47.858;9.594;2023-03-12T09:13:14;12.43;;;6.20;;
18200;SDS011;9226;47.858;9.594;2023-03-12T09:15:39;16.13;;;7.10;;
18200;SDS011;9226;47.858;9.594;2023-03-12T09:18:05;14.87;;;6.40;;
18200;SDS011;9226;47.858;9.594;2023-03-12T09:20:30;13.50;;;6.10;;
18200;SDS011;9226;47.858;9.594;2023-03-12T09:22:56;12.13;;;6.23;;
18200;SDS011;9226;47.858;9.594;2023-03-12T09:25:21;14.30;;;6.67;;
18200;SDS011;9226;47.858;9.594;2023-03-12T09:27:47;12.93;;;6.60;;
18200;SDS011;9226;47.858;9.594;2023-03-12T09:30:14;13.93;;;6.90;;
18200;SDS011;9226;47.858;9.594;2023-03-12T09:32:42;14.93;;;7.30;;
18200;SDS011;9226;47.858;9.594;2023-03-12T09:35:10;18.67;;;7.03;;
18200;SDS011;9226;47.858;9.594;2023-03-12T09:37:37;13.10;;;6.63;;
18200;SDS011;9226;47.858;9.594;2023-03-12T09:40:03;12.93;;;6.57;;
18200;SDS011;9226;47.858;9.594;2023-03-12T09:42:39;13.43;;;6.63;;
18200;SDS011;9226;47.858;9.594;2023-03-12T09:45:10;10.97;;;5.80;;
18200;SDS011;9226;47.858;9.594;2023-03-12T09:47:45;11.10;;;6.03;;
18200;SDS011;9226;47.858;9.594;2023-03-12T09:50:27;12.20;;;5.80;;
18200;SDS011;9226;47.858;9.594;2023-03-12T09:53:01;12.40;;;5.90;;
18200;SDS011;9226;47.858;9.594;2023-03-12T09:55:31;11.63;;;6.13;;
18200;SDS011;9226;47.858;9.594;2023-03-12T09:58:01;10.17;;;5.70;;
18200;SDS011;9226;47.858;9.594;2023-03-12T10:00:29;11.37;;;5.43;;
18200;SDS011;9226;47.858;9.594;2023-03-12T10:03:15;12.10;;;6.07;;
18200;SDS011;9226;47.858;9.594;2023-03-12T10:06:04;11.73;;;5.60;;
18200;SDS011;9226;47.858;9.594;2023-03-12T10:14:52;12.17;;;5.77;;
18200;SDS011;9226;47.858;9.594;2023-03-12T10:17:44;15.80;;;5.57;;
18200;SDS011;9226;47.858;9.594;2023-03-12T10:20:39;10.77;;;5.13;;
18200;SDS011;9226;47.858;9.594;2023-03-12T10:31:02;8.17;;;4.50;;
18200;SDS011;9226;47.858;9.594;2023-03-12T10:33:42;8.53;;;4.53;;
18200;SDS011;9226;47.858;9.594;2023-03-12T10:36:18;9.17;;;4.57;;
18200;SDS011;9226;47.858;9.594;2023-03-12T10:38:47;7.37;;;4.10;;
18200;SDS011;9226;47.858;9.594;2023-03-12T10:41:14;7.90;;;4.30;;
18200;SDS011;9226;47.858;9.594;2023-03-12T10:43:42;8.20;;;4.20;;
18200;SDS011;9226;47.858;9.594;2023-03-12T10:48:39;9.13;;;4.27;;
18200;SDS011;9226;47.858;9.594;2023-03-12T10:51:10;8.90;;;4.30;;
18200;SDS011;9226;47.858;9.594;2023-03-12T10:53:37;7.40;;;4.10;;
18200;SDS011;9226;47.858;9.594;2023-03-12T10:56:11;6.53;;;3.97;;
18200;SDS011;9226;47.858;9.594;2023-03-12T10:58:41;7.00;;;3.70;;
18200;SDS011;9226;47.858;9.594;2023-03-12T11:01:19;9.57;;;3.97;;
18200;SDS011;9226;47.858;9.594;2023-03-12T11:03:46;5.27;;;3.30;;
18200;SDS011;9226;47.858;9.594;2023-03-12T11:06:19;6.97;;;3.57;;
18200;SDS011;9226;47.858;9.594;2023-03-12T11:09:00;4.90;;;3.13;;
18200;SDS011;9226;47.858;9.594;2023-03-12T11:11:43;5.37;;;3.40;;
18200;SDS011;9226;47.858;9.594;2023-03-12T11:16:50;4.97;;;2.77;;
18200;SDS011;9226;47.858;9.594;2023-03-12T11:19:33;4.10;;;2.60;;
18200;SDS011;9226;47.858;9.594;2023-03-12T11:22:00;4.97;;;3.10;;
18200;SDS011;9226;47.858;9.594;2023-03-12T11:24:28;4.60;;;2.87;;
18200;SDS011;9226;47.858;9.594;2023-03-12T11:29:40;4.50;;;2.83;;
18200;SDS011;9226;47.858;9.594;2023-03-12T11:32:23;4.40;;;2.77;;
18200;SDS011;9226;47.858;9.594;2023-03-12T11:34:55;4.23;;;2.47;;
18200;SDS011;9226;47.858;9.594;2023-03-12T11:37:35;6.37;;;2.80;;
18200;SDS011;9226;47.858;9.594;2023-03-12T11:48:19;3.50;;;2.43;;
18200;SDS011;9226;47.858;9.594;2023-03-12T11:50:59;3.67;;;2.30;;
18200;SDS011;9226;47.858;9.594;2023-03-12T11:53:47;3.53;;;2.50;;
18200;SDS011;9226;47.858;9.594;2023-03-12T11:56:26;5.00;;;2.70;;
18200;SDS011;9226;47.858;9.594;2023-03-12T12:13:12;3.07;;;2.00;;
18200;SDS011;9226;47.858;9.594;2023-03-12T12:21:21;2.77;;;1.87;;
18200;SDS011;9226;47.858;9.594;2023-03-12T12:29:33;2.60;;;1.90;;
18200;SDS011;9226;47.858;9.594;2023-03-12T12:32:04;3.07;;;1.90;;
18200;SDS011;9226;47.858;9.594;2023-03-12T12:37:41;3.37;;;2.20;;
18200;SDS011;9226;47.858;9.594;2023-03-12T12:42:53;3.80;;;1.83;;
18200;SDS011;9226;47.858;9.594;2023-03-12T12:45:23;3.57;;;1.67;;
18200;SDS011;9226;47.858;9.594;2023-03-12T12:48:02;2.53;;;1.57;;
18200;SDS011;9226;47.858;9.594;2023-03-12T12:50:32;2.77;;;1.50;;
18200;SDS011;9226;47.858;9.594;2023-03-12T13:01:58;2.53;;;1.47;;
18200;SDS011;9226;47.858;9.594;2023-03-12T13:06:57;1.83;;;1.47;;
18200;SDS011;9226;47.858;9.594;2023-03-12T13:09:46;1.67;;;1.27;;
18200;SDS011;9226;47.858;9.594;2023-03-12T13:14:49;2.30;;;1.47;;
18200;SDS011;9226;47.858;9.594;2023-03-12T13:19:56;3.03;;;2.00;;
18200;SDS011;9226;47.858;9.594;2023-03-12T13:22:49;3.83;;;2.30;;
18200;SDS011;9226;47.858;9.594;2023-03-12T13:25:23;4.30;;;2.60;;
18200;SDS011;9226;47.858;9.594;2023-03-12T13:28:25;4.10;;;2.70;;
18200;SDS011;9226;47.858;9.594;2023-03-12T13:30:50;5.10;;;3.17;;
18200;SDS011;9226;47.858;9.594;2023-03-12T13:33:17;3.90;;;2.70;;
18200;SDS011;9226;47.858;9.594;2023-03-12T13:36:02;4.40;;;2.70;;
18200;SDS011;9226;47.858;9.594;2023-03-12T13:38:33;5.00;;;2.93;;
18200;SDS011;9226;47.858;9.594;2023-03-12T13:41:01;4.50;;;2.40;;
18200;SDS011;9226;47.858;9.594;2023-03-12T13:43:39;3.00;;;2.17;;
18200;SDS011;9226;47.858;9.594;2023-03-12T13:48:42;3.20;;;2.20;;
18200;SDS011;9226;47.858;9.594;2023-03-12T13:51:17;3.93;;;2.30;;
18200;SDS011;9226;47.858;9.594;2023-03-12T13:53:49;3.23;;;2.20;;
18200;SDS011;9226;47.858;9.594;2023-03-12T13:56:21;4.00;;;2.30;;
18200;SDS011;9226;47.858;9.594;2023-03-12T13:59:01;5.33;;;2.30;;
18200;SDS011;9226;47.858;9.594;2023-03-12T14:01:30;4.10;;;2.00;;
18200;SDS011;9226;47.858;9.594;2023-03-12T14:04:03;3.10;;;2.00;;
18200;SDS011;9226;47.858;9.594;2023-03-12T14:06:33;2.83;;;2.00;;
18200;SDS011;9226;47.858;9.594;2023-03-12T14:11:51;4.00;;;2.40;;
18200;SDS011;9226;47.858;9.594;2023-03-12T14:17:02;6.57;;;1.80;;
18200;SDS011;9226;47.858;9.594;2023-03-12T14:19:30;4.30;;;1.37;;
18200;SDS011;9226;47.858;9.594;2023-03-12T14:22:02;5.90;;;1.33;;
18200;SDS011;9226;47.858;9.594;2023-03-12T14:24:32;7.57;;;2.00;;
18200;SDS011;9226;47.858;9.594;2023-03-12T14:27:03;7.03;;;1.80;;
18200;SDS011;9226;47.858;9.594;2023-03-12T14:29:34;6.10;;;1.80;;
18200;SDS011;9226;47.858;9.594;2023-03-12T14:32:03;4.03;;;1.30;;
18200;SDS011;9226;47.858;9.594;2023-03-12T14:34:32;2.90;;;1.30;;
18200;SDS011;9226;47.858;9.594;2023-03-12T14:37:15;4.13;;;1.53;;
18200;SDS011;9226;47.858;9.594;2023-03-12T14:39:45;8.30;;;1.40;;
18200;SDS011;9226;47.858;9.594;2023-03-12T14:42:22;7.50;;;1.60;;
18200;SDS011;9226;47.858;9.594;2023-03-12T14:44:52;4.40;;;1.37;;
18200;SDS011;9226;47.858;9.594;2023-03-12T14:47:23;7.43;;;1.57;;
18200;SDS011;9226;47.858;9.594;2023-03-12T14:49:48;4.40;;;1.30;;
18200;SDS011;9226;47.858;9.594;2023-03-12T14:52:25;2.73;;;1.10;;
18200;SDS011;9226;47.858;9.594;2023-03-12T14:55:00;11.73;;;1.23;;
18200;SDS011;9226;47.858;9.594;2023-03-12T14:57:28;2.83;;;1.20;;
18200;SDS011;9226;47.858;9.594;2023-03-12T14:59:54;4.07;;;1.10;;
18200;SDS011;9226;47.858;9.594;2023-03-12T15:02:21;3.17;;;1.27;;
18200;SDS011;9226;47.858;9.594;2023-03-12T15:04:48;7.03;;;1.17;;
18200;SDS011;9226;47.858;9.594;2023-03-12T15:07:18;1.97;;;1.27;;
18200;SDS011;9226;47.858;9.594;2023-03-12T15:09:52;3.60;;;1.27;;
18200;SDS011;9226;47.858;9.594;2023-03-12T15:12:25;5.87;;;1.13;;
18200;SDS011;9226;47.858;9.594;2023-03-12T15:14:53;4.40;;;1.23;;
18200;SDS011;9226;47.858;9.594;2023-03-12T15:17:25;6.03;;;1.13;;
18200;SDS011;9226;47.858;9.594;2023-03-12T15:19:54;5.07;;;1.00;;
18200;SDS011;9226;47.858;9.594;2023-03-12T15:22:21;5.70;;;0.90;;
18200;SDS011;9226;47.858;9.594;2023-03-12T15:24:49;6.03;;;1.47;;
18200;SDS011;9226;47.858;9.594;2023-03-12T15:29:52;4.63;;;1.17;;
18200;SDS011;9226;47.858;9.594;2023-03-12T15:32:19;3.93;;;1.03;;
18200;SDS011;9226;47.858;9.594;2023-03-12T15:34:48;3.00;;;0.80;;
18200;SDS011;9226;47.858;9.594;2023-03-12T15:39:52;2.10;;;0.70;;
18200;SDS011;9226;47.858;9.594;2023-03-12T15:42:22;5.50;;;1.10;;
18200;SDS011;9226;47.858;9.594;2023-03-12T15:44:50;5.93;;;1.07;;
18200;SDS011;9226;47.858;9.594;2023-03-12T15:47:29;2.70;;;1.17;;
18200;SDS011;9226;47.858;9.594;2023-03-12T15:50:01;5.23;;;0.77;;
18200;SDS011;9226;47.858;9.594;2023-03-12T15:52:37;1.20;;;0.80;;
18200;SDS011;9226;47.858;9.594;2023-03-12T15:57:44;2.67;;;0.90;;
18200;SDS011;9226;47.858;9.594;2023-03-12T16:02:45;5.57;;;0.90;;
18200;SDS011;9226;47.858;9.594;2023-03-12T16:05:15;3.30;;;1.07;;
18200;SDS011;9226;47.858;9.594;2023-03-12T16:07:42;3.53;;;1.00;;
18200;SDS011;9226;47.858;9.594;2023-03-12T16:10:14;6.27;;;1.20;;
18200;SDS011;9226;47.858;9.594;2023-03-12T16:12:43;9.47;;;1.20;;
18200;SDS011;9226;47.858;9.594;2023-03-12T16:15:14;5.43;;;1.40;;
18200;SDS011;9226;47.858;9.594;2023-03-12T16:17:41;3.37;;;1.40;;
18200;SDS011;9226;47.858;9.594;2023-03-12T16:20:11;2.10;;;1.20;;
18200;SDS011;9226;47.858;9.594;2023-03-12T16:22:39;3.70;;;1.30;;
18200;SDS011;9226;47.858;9.594;2023-03-12T16:25:05;3.43;;;1.00;;
18200;SDS011;9226;47.858;9.594;2023-03-12T16:27:32;7.80;;;1.70;;
18200;SDS011;9226;47.858;9.594;2023-03-12T16:30:03;5.57;;;1.40;;
18200;SDS011;9226;47.858;9.594;2023-03-12T16:32:39;5.27;;;1.40;;
18200;SDS011;9226;47.858;9.594;2023-03-12T16:35:10;4.23;;;1.33;;
18200;SDS011;9226;47.858;9.594;2023-03-12T16:37:36;8.67;;;2.40;;
18200;SDS011;9226;47.858;9.594;2023-03-12T16:40:01;7.27;;;2.27;;
18200;SDS011;9226;47.858;9.594;2023-03-12T16:42:28;11.47;;;3.50;;
18200;SDS011;9226;47.858;9.594;2023-03-12T16:44:53;11.10;;;2.80;;
18200;SDS011;9226;47.858;9.594;2023-03-12T16:47:18;6.00;;;2.17;;
18200;SDS011;9226;47.858;9.594;2023-03-12T16:49:44;5.37;;;1.93;;